Flight Track Log - Related Links

Times and Time Zones

All times are in EDT time to prevent confusion due to time zone crossing. See the SKW5304 flight status page for this flight to view local times or setup timezone preferences in your user account.

Time Position Orientation Groundspeed Altitude Reporting Facility
EDT Latitude Longitude Course Direction KTS MPH feet Rate Location/Type
Wed 11:58:24 PM 36.1047 -115.1508 258° West 150 173 3,000  Level Los Center
Wed 11:59:25 PM 36.1233 -115.1767 312° West 176 203 4,400 1,140 Climbing Los Center
Thu 12:00:04 AM 36.1081 -115.2128 242° Southwest 183 211 4,900 787 Climbing Los Center
Thu 12:00:26 AM 36.1003 -115.2400 251° West 215 247 5,200 1,258 Climbing Los Center
Thu 12:01:00 AM 36.1270 -115.4255 282° West  Level Estimated
Thu 12:01:06 AM 36.0853 -115.2781 244° Southwest 203 234 6,200  Level Los Center
Thu 12:01:27 AM 36.0703 -115.3006 230° Southwest 213 245 6,600 1,258 Climbing Los Center
Thu 12:02:00 AM 36.0542 -115.4491 195° South  Level FlightAware
Thu 12:02:08 AM 36.0350 -115.3219 206° Southwest 209 241 7,500  Level Los Center
Thu 12:02:28 AM 36.0194 -115.3356 215° Southwest 206 237 8,000 1,377 Climbing Los Center
Thu 12:03:00 AM 35.9924 -115.5122 258° West  Level FlightAware
Thu 12:03:09 AM 35.9858 -115.3556 206° Southwest 206 237 8,900  Level Los Center
Thu 12:03:29 AM 35.9683 -115.3683 211° Southwest 202 232 9,400 1,161 Climbing Los Center
Thu 12:04:11 AM 35.9372 -115.3869 206° Southwest 199 229 10,100 1,000 Climbing Los Center
Thu 12:04:29 AM 35.9192 -115.4003 211° Southwest 196 226 10,400 1,161 Climbing Los Center
Thu 12:05:13 AM 35.9069 -115.4447 251° West 193 222 11,300 1,075 Climbing Los Center
Thu 12:06:15 AM 35.9031 -115.5161 266° West 204 235 12,300 976 Climbing Los Center
Thu 12:07:16 AM 35.9067 -115.5900 273° West 213 245 13,300 976 Climbing Los Center
Thu 12:08:18 AM 35.9022 -115.6683 266° West 213 245 14,300 823 Climbing Los Center
Thu 12:09:20 AM 35.9008 -115.7408 269° West 213 245 15,000 339 Climbing Los Center
Thu 12:10:22 AM 35.9003 -115.8236 270° West 238 274 15,000 195 Level Los Center
Thu 12:11:23 AM 35.8969 -115.9178 268° West 255 293 15,400 1,073 Climbing Los Center
Thu 12:12:25 AM 35.8992 -115.9914 272° West 211 243 17,200 1,463 Climbing Los Center
Thu 12:13:26 AM 35.9169 -116.0614 287° West 198 228 18,400 1,024 Climbing Los Center
Thu 12:14:28 AM 35.9322 -116.1275 286° West 199 229 19,300 919 Climbing Los Center
Thu 12:15:30 AM 35.9500 -116.1936 288° West 204 235 20,300 878 Climbing Los Center
Thu 12:16:31 AM 35.9664 -116.2500 290° West 203 234 21,100 780 Climbing Los Center
Thu 12:17:33 AM 35.9853 -116.3178 289° West 204 235 21,900 774 Climbing Los Center
Thu 12:18:35 AM 36.0056 -116.4014 287° West 210 242 22,700 780 Climbing Los Center
Thu 12:19:36 AM 36.0236 -116.4739 287° West 218 251 23,500 634 Climbing Los Center
Thu 12:20:38 AM 36.0400 -116.5481 285° West 219 252 24,000 244 Climbing Los Center
Thu 12:21:39 AM 36.0567 -116.6275 285° West 231 266 24,000  Level Los Center
Thu 12:22:41 AM 36.0781 -116.7142 287° West 254 292 24,000  Level Los Center
Thu 12:23:42 AM 36.1011 -116.8022 288° West 265 305 24,000  Level Los Center
Thu 12:24:44 AM 36.1250 -116.8903 289° West 270 311 24,000  Level Los Center
Thu 12:25:46 AM 36.1542 -116.9964 289° West 273 314 24,000  Level Los Center
Thu 12:26:47 AM 36.1753 -117.0853 286° West 272 313 24,000  Level Los Center
Thu 12:27:49 AM 36.1969 -117.1744 287° West 272 313 24,000  Level Los Center
Thu 12:28:50 AM 36.2181 -117.2628 287° West 272 313 24,000  Level Los Center
Thu 12:29:52 AM 36.2394 -117.3522 287° West 272 313 24,000  Level Los Center
Thu 12:30:53 AM 36.2600 -117.4394 286° West 271 312 24,000  Level Los Center
Thu 12:31:55 AM 36.2803 -117.5283 286° West 271 312 24,000  Level Los Center
Thu 12:32:56 AM 36.3050 -117.6347 286° West 271 312 24,000  Level Los Center
Thu 12:33:58 AM 36.3253 -117.7219 286° West 270 311 24,000  Level Los Center
Thu 12:34:59 AM 36.3464 -117.8111 286° West 270 311 24,000  Level Los Center
Thu 12:36:01 AM 36.3672 -117.8997 286° West 270 311 24,000  Level Los Center
Thu 12:37:02 AM 36.3875 -117.9914 285° West 270 311 24,000 -244 Level Los Center
Thu 12:38:04 AM 36.4092 -118.0792 287° West 270 311 23,500 -585 Descending Los Center
Thu 12:39:05 AM 36.4303 -118.1775 285° West 283 326 22,800 -683 Descending Los Center
Thu 12:40:07 AM 36.4517 -118.2736 285° West 288 331 22,100 -780 Descending Los Center
Thu 12:41:08 AM 36.4781 -118.3908 286° West 291 335 21,200 -1,000 Descending Los Center
Thu 12:42:07 AM 36.4992 -118.4867 285° West 295 339 20,100 -600 Descending Oakland Center
Thu 12:43:08 AM 36.5231 -118.5858 287° West 298 343 20,000 -393 Descending Oakland Center
Thu 12:44:09 AM 36.5469 -118.6811 287° West 295 339 19,300 -1,123 Descending Oakland Center
Thu 12:46:15 AM 36.5958 -118.8911 286° West 316 364 16,500 -1,337 Descending Los Center
Thu 12:47:13 AM 36.6156 -118.9944 283° West 315 362 15,200 -756 Descending Oakland Center
Thu 12:48:14 AM 36.6383 -119.0947 286° West 305 351 15,000 -443 Descending Oakland Center
Thu 12:49:15 AM 36.6647 -119.2050 287° West 279 321 14,300 -1,230 Descending Oakland Center
Thu 12:50:16 AM 36.6850 -119.3006 285° West 286 329 12,500 -1,820 Descending Oakland Center
Thu 12:51:17 AM 36.6717 -119.3878 259° West 259 298 10,600 -2,164 Descending Oakland Center
Thu 12:52:18 AM 36.6503 -119.4758 253° West 264 304 8,100 -2,508 Descending Oakland Center
Thu 12:53:19 AM 36.6381 -119.5639 260° West 267 307 5,500 -2,164 Descending Oakland Center
Thu 12:54:20 AM 36.6964 -119.5914 339° North 240 276 3,700 -1,574 Descending Oakland Center
Thu 12:55:21 AM 36.7303 -119.6242 322° Northwest 149 171 2,300 -1,279 Descending Oakland Center
Thu 12:56:22 AM 36.7461 -119.6639 296° West 129 148 1,100 -885 Descending Oakland Center
Thu 12:57:23 AM 36.7667 -119.6997 306° West 129 148 500 -590 Descending Oakland Center

Login

Don't have an account? Register now (free) for customized features, flight alerts, and more!